createdAt,value
2023-04-15T00:01:19.656Z,92.21
2023-04-15T00:04:05.442Z,91.75
2023-04-15T00:06:53.328Z,91.87
2023-04-15T00:09:38.714Z,91.91
2023-04-15T00:12:24.773Z,92.00
2023-04-15T00:15:10.524Z,91.78
2023-04-15T00:17:55.949Z,92.23
2023-04-15T00:20:41.666Z,92.23
2023-04-15T00:23:26.788Z,91.98
2023-04-15T00:26:12.697Z,91.98
2023-04-15T00:28:58.419Z,91.71
2023-04-15T00:31:43.640Z,91.19
2023-04-15T00:34:29.093Z,91.56
2023-04-15T00:37:14.309Z,91.00
2023-04-15T00:39:59.876Z,91.18
2023-04-15T00:42:45.709Z,91.21
2023-04-15T00:45:31.052Z,91.13
2023-04-15T00:48:17.494Z,91.51
2023-04-15T00:51:02.748Z,91.36
2023-04-15T00:53:48.140Z,91.30
2023-04-15T00:56:41.021Z,91.45
2023-04-15T00:59:26.388Z,91.62
2023-04-15T01:02:11.998Z,91.22
2023-04-15T01:04:57.465Z,91.80
2023-04-15T01:07:43.046Z,91.82
2023-04-15T01:10:28.807Z,91.82
2023-04-15T01:13:13.712Z,91.48
2023-04-15T01:15:59.154Z,91.26
2023-04-15T01:18:44.919Z,91.84
2023-04-15T01:21:30.196Z,91.98
2023-04-15T01:24:18.658Z,91.70
2023-04-15T01:27:05.616Z,91.44
2023-04-15T01:29:50.888Z,91.88
2023-04-15T01:32:36.877Z,91.50
2023-04-15T01:35:22.640Z,91.42
2023-04-15T01:38:09.836Z,91.65
2023-04-15T01:40:55.299Z,91.79
2023-04-15T01:43:40.616Z,91.61
2023-04-15T01:46:26.606Z,91.79
2023-04-15T01:49:11.765Z,92.04
2023-04-15T01:51:57.357Z,91.76
2023-04-15T01:54:42.902Z,92.01
2023-04-15T01:57:28.129Z,92.06
2023-04-15T02:00:13.908Z,92.32
2023-04-15T02:02:59.485Z,92.46
2023-04-15T02:05:44.854Z,92.73
2023-04-15T02:08:30.278Z,92.20
2023-04-15T02:11:15.594Z,91.87
2023-04-15T02:14:00.853Z,92.49
2023-04-15T02:16:46.479Z,92.36
2023-04-15T02:19:32.225Z,92.14
2023-04-15T02:22:18.970Z,92.49
2023-04-15T02:25:04.528Z,92.54
2023-04-15T02:27:49.724Z,92.77
2023-04-15T02:30:34.924Z,92.28
2023-04-15T02:33:21.730Z,92.95
2023-04-15T02:36:08.392Z,93.00
2023-04-15T02:38:53.344Z,92.80
2023-04-15T02:41:38.726Z,93.04
2023-04-15T02:44:25.087Z,92.81
2023-04-15T02:47:11.917Z,93.03
2023-04-15T02:49:58.675Z,92.91
2023-04-15T02:52:44.767Z,92.64
2023-04-15T02:55:29.759Z,92.47
2023-04-15T02:58:15.067Z,92.68
2023-04-15T03:01:00.443Z,92.52
2023-04-15T03:03:45.738Z,92.42
2023-04-15T03:06:31.004Z,92.50
2023-04-15T03:09:16.213Z,92.38
2023-04-15T03:12:01.638Z,92.63
2023-04-15T03:14:46.997Z,92.39
2023-04-15T03:17:32.473Z,92.74
2023-04-15T03:20:18.090Z,92.45
2023-04-15T03:23:03.301Z,92.77
2023-04-15T03:25:48.246Z,93.03
2023-04-15T03:28:33.765Z,93.03
2023-04-15T03:31:18.894Z,93.26
2023-04-15T03:34:04.009Z,93.37
2023-04-15T03:36:49.474Z,93.11
2023-04-15T03:39:35.758Z,93.55
2023-04-15T03:42:21.039Z,93.73
2023-04-15T03:45:07.724Z,93.83
2023-04-15T03:47:52.795Z,93.94
2023-04-15T03:50:38.096Z,94.02
2023-04-15T03:53:23.351Z,94.36
2023-04-15T03:56:08.634Z,94.12
2023-04-15T03:58:53.792Z,94.54
2023-04-15T04:01:39.058Z,94.28
2023-04-15T04:04:24.524Z,94.45
2023-04-15T04:07:14.586Z,94.45
2023-04-15T04:09:59.577Z,94.29
2023-04-15T04:12:45.086Z,93.92
2023-04-15T04:15:30.282Z,93.87
2023-04-15T04:18:15.478Z,94.02
2023-04-15T04:21:01.242Z,93.93
2023-04-15T04:23:46.525Z,93.72
2023-04-15T04:26:31.970Z,93.65
2023-04-15T04:29:17.112Z,94.11
2023-04-15T04:32:02.614Z,93.42
2023-04-15T04:34:48.160Z,93.43
2023-04-15T04:37:33.247Z,93.54
2023-04-15T04:40:18.314Z,93.74
2023-04-15T04:43:03.571Z,93.39
2023-04-15T04:45:48.967Z,93.49
2023-04-15T04:48:34.082Z,93.69
2023-04-15T04:51:19.251Z,93.63
2023-04-15T04:54:04.536Z,94.16
2023-04-15T04:56:49.693Z,94.69
2023-04-15T04:59:34.983Z,95.10
2023-04-15T05:02:20.059Z,95.46
2023-04-15T05:05:06.663Z,95.54
2023-04-15T05:07:51.907Z,95.65
2023-04-15T05:10:37.236Z,96.38
2023-04-15T05:13:22.433Z,95.98
2023-04-15T05:16:08.512Z,96.95
2023-04-15T05:18:54.092Z,97.28
2023-04-15T05:21:39.611Z,97.13
2023-04-15T05:24:25.451Z,97.41
2023-04-15T05:27:11.658Z,97.57
2023-04-15T05:29:56.783Z,98.00
2023-04-15T05:32:42.071Z,99.56
2023-04-15T05:35:27.241Z,98.35
2023-04-15T05:38:12.670Z,98.37
2023-04-15T05:40:57.952Z,97.82
2023-04-15T05:43:43.334Z,98.13
2023-04-15T05:46:28.618Z,97.86
2023-04-15T05:49:13.734Z,97.67
2023-04-15T05:51:59.430Z,97.60
2023-04-15T05:54:44.628Z,97.59
2023-04-15T05:57:29.910Z,97.29
2023-04-15T06:00:15.746Z,98.10
2023-04-15T06:03:01.354Z,97.15
2023-04-15T06:05:46.700Z,97.16
2023-04-15T06:08:31.917Z,97.54
2023-04-15T06:11:17.329Z,97.54
2023-04-15T06:14:02.712Z,97.67
2023-04-15T06:16:48.079Z,97.57
2023-04-15T06:19:33.737Z,97.48
2023-04-15T06:22:18.664Z,97.99
2023-04-15T06:25:04.406Z,98.17
2023-04-15T06:27:49.213Z,97.82
2023-04-15T06:30:36.017Z,97.62
2023-04-15T06:33:21.243Z,98.18
2023-04-15T06:36:06.661Z,97.98
2023-04-15T06:38:51.918Z,97.84
2023-04-15T06:41:37.198Z,98.21
2023-04-15T06:44:22.423Z,97.93
2023-04-15T06:47:07.727Z,98.21
2023-04-15T06:49:53.098Z,97.36
2023-04-15T06:52:38.495Z,97.71
2023-04-15T06:55:23.712Z,97.72
2023-04-15T06:58:09.153Z,97.67
2023-04-15T07:00:54.641Z,97.89
2023-04-15T07:03:39.870Z,97.99
2023-04-15T07:06:26.041Z,97.03
2023-04-15T07:09:11.174Z,97.40
2023-04-15T07:11:56.597Z,97.17
2023-04-15T07:14:41.786Z,96.81
2023-04-15T07:17:27.289Z,96.33
2023-04-15T07:20:13.089Z,96.39
2023-04-15T07:22:58.273Z,95.59
2023-04-15T07:25:43.519Z,95.86
2023-04-15T07:28:28.710Z,95.78
2023-04-15T07:31:15.028Z,95.83
2023-04-15T07:34:00.362Z,95.13
2023-04-15T07:36:46.104Z,94.91
2023-04-15T07:39:31.550Z,95.30
2023-04-15T07:42:16.920Z,95.52
2023-04-15T07:45:02.274Z,94.71
2023-04-15T07:47:47.828Z,95.08
2023-04-15T07:50:33.540Z,95.09
2023-04-15T07:53:18.636Z,94.75
2023-04-15T07:56:04.019Z,94.40
2023-04-15T07:58:49.045Z,94.40
2023-04-15T08:01:34.349Z,94.53
2023-04-15T08:04:19.687Z,94.69
2023-04-15T08:07:05.127Z,94.49
2023-04-15T08:09:50.028Z,93.87
2023-04-15T08:12:35.763Z,94.14
2023-04-15T08:15:21.567Z,93.74
2023-04-15T08:18:07.318Z,93.33
2023-04-15T08:20:53.330Z,92.29
2023-04-15T08:23:39.385Z,92.37
2023-04-15T08:26:24.787Z,93.03
2023-04-15T08:29:09.953Z,92.72
2023-04-15T08:31:55.795Z,92.02
2023-04-15T08:34:41.102Z,91.85
2023-04-15T08:37:26.970Z,91.64
2023-04-15T08:40:12.757Z,92.06
2023-04-15T08:42:59.290Z,91.11
2023-04-15T08:45:46.273Z,90.79
2023-04-15T08:48:34.777Z,90.50
2023-04-15T08:51:20.426Z,88.51
2023-04-15T08:54:13.373Z,89.91
2023-04-15T08:56:58.760Z,89.52
2023-04-15T08:59:44.618Z,88.61
2023-04-15T09:02:29.940Z,87.63
2023-04-15T09:05:16.579Z,86.56
2023-04-15T09:08:02.517Z,84.12
2023-04-15T09:10:47.883Z,83.93
2023-04-15T09:13:33.285Z,82.00
2023-04-15T09:16:19.013Z,82.43
2023-04-15T09:19:22.683Z,82.22
2023-04-15T09:22:08.076Z,83.60
2023-04-15T09:24:53.310Z,84.96
2023-04-15T09:27:48.821Z,82.80
2023-04-15T09:30:34.731Z,82.19
2023-04-15T09:33:20.308Z,77.60
2023-04-15T09:36:06.172Z,79.28
2023-04-15T09:38:58.965Z,79.03
2023-04-15T09:41:45.165Z,77.45
2023-04-15T09:44:30.409Z,76.69
2023-04-15T09:47:31.336Z,76.16
2023-04-15T09:50:17.108Z,76.23
2023-04-15T09:53:03.836Z,76.00
2023-04-15T09:55:57.547Z,76.88
2023-04-15T09:58:43.251Z,77.15
2023-04-15T10:01:28.365Z,77.42
2023-04-15T10:04:13.795Z,76.61
2023-04-15T10:07:00.124Z,76.61
2023-04-15T10:09:47.010Z,76.67
2023-04-15T10:12:33.539Z,75.85
2023-04-15T10:15:19.061Z,74.92
2023-04-15T10:18:07.349Z,74.98
2023-04-15T10:20:53.566Z,74.54
2023-04-15T10:23:39.596Z,73.74
2023-04-15T10:26:25.171Z,73.92
2023-04-15T10:29:11.083Z,74.25
2023-04-15T10:31:57.021Z,75.47
2023-04-15T10:34:42.783Z,75.95
2023-04-15T10:37:37.208Z,77.07
2023-04-15T10:40:28.171Z,78.45
2023-04-15T10:43:27.073Z,80.21
2023-04-15T10:46:12.513Z,81.19
2023-04-15T10:48:57.730Z,83.89
2023-04-15T10:51:47.192Z,85.19
2023-04-15T10:54:33.696Z,86.40
2023-04-15T10:57:23.718Z,87.57
2023-04-15T11:00:09.119Z,89.14
2023-04-15T11:03:07.449Z,89.28
2023-04-15T11:05:53.703Z,90.32
2023-04-15T11:08:59.581Z,89.74
2023-04-15T11:12:08.856Z,90.19
2023-04-15T11:14:53.914Z,89.78
2023-04-15T11:17:38.950Z,89.72
2023-04-15T11:20:25.273Z,89.09
2023-04-15T11:23:14.949Z,89.68
2023-04-15T11:26:02.628Z,89.99
2023-04-15T11:28:48.158Z,89.81
2023-04-15T11:31:33.811Z,89.95
2023-04-15T11:34:24.026Z,92.16
2023-04-15T11:37:10.303Z,92.49
2023-04-15T11:39:55.753Z,93.45
2023-04-15T11:42:49.469Z,94.44
2023-04-15T11:45:48.608Z,93.54
2023-04-15T11:48:36.057Z,94.34
2023-04-15T11:51:22.811Z,93.84
2023-04-15T11:54:08.240Z,93.81
2023-04-15T11:56:54.648Z,93.17
2023-04-15T11:59:46.059Z,91.56
2023-04-15T12:02:32.444Z,90.50
2023-04-15T12:05:17.912Z,87.91
2023-04-15T12:08:03.205Z,87.83
2023-04-15T12:10:48.488Z,87.87
2023-04-15T12:13:33.668Z,86.88
2023-04-15T12:16:20.020Z,86.91
2023-04-15T12:19:09.200Z,87.06
2023-04-15T12:22:01.014Z,86.19
2023-04-15T12:24:49.602Z,87.13
2023-04-15T12:27:36.275Z,86.63
2023-04-15T12:30:21.405Z,86.17
2023-04-15T12:33:06.653Z,85.20
2023-04-15T12:35:52.058Z,85.43
2023-04-15T12:38:37.464Z,85.27
2023-04-15T12:41:24.447Z,86.03
2023-04-15T12:44:10.074Z,83.32
2023-04-15T12:46:55.479Z,83.00
2023-04-15T12:49:41.320Z,83.36
2023-04-15T12:52:26.716Z,84.33
2023-04-15T12:55:12.312Z,83.23
2023-04-15T12:57:57.567Z,83.89
2023-04-15T13:00:42.957Z,83.63
2023-04-15T13:03:28.403Z,83.59
2023-04-15T13:06:13.822Z,82.66
2023-04-15T13:09:00.104Z,83.99
2023-04-15T13:11:45.784Z,83.25
2023-04-15T13:14:31.163Z,83.37
2023-04-15T13:17:18.984Z,83.34
2023-04-15T13:20:04.495Z,82.58
2023-04-15T13:22:49.499Z,82.45
2023-04-15T13:25:34.928Z,82.93
2023-04-15T13:28:20.512Z,83.68
2023-04-15T13:31:05.960Z,84.01
2023-04-15T13:33:51.464Z,81.94
2023-04-15T13:36:36.828Z,81.83
2023-04-15T13:39:22.281Z,82.54
2023-04-15T13:42:07.525Z,82.80
2023-04-15T13:44:53.033Z,82.23
2023-04-15T13:47:38.593Z,82.05
2023-04-15T13:50:24.278Z,81.15
2023-04-15T13:53:09.359Z,81.13
2023-04-15T13:55:54.668Z,81.58
2023-04-15T13:58:41.236Z,81.80
2023-04-15T14:01:27.288Z,81.31
2023-04-15T14:04:12.743Z,81.53
2023-04-15T14:06:58.158Z,82.78
2023-04-15T14:09:44.145Z,83.28
2023-04-15T14:12:29.351Z,83.82
2023-04-15T14:15:14.590Z,83.33
2023-04-15T14:17:59.946Z,84.84
2023-04-15T14:20:45.272Z,85.43
2023-04-15T14:23:30.656Z,85.75
2023-04-15T14:26:16.011Z,86.09
2023-04-15T14:29:01.327Z,86.02
2023-04-15T14:32:03.936Z,85.50
2023-04-15T14:34:51.814Z,79.01
2023-04-15T14:37:37.033Z,78.87
2023-04-15T14:40:22.867Z,79.13
2023-04-15T14:43:08.170Z,80.36
2023-04-15T14:45:53.929Z,80.91
2023-04-15T14:48:39.695Z,81.00
2023-04-15T14:51:25.017Z,82.47
2023-04-15T14:54:10.470Z,82.98
2023-04-15T14:56:56.334Z,82.74
2023-04-15T14:59:41.289Z,83.58
2023-04-15T15:02:38.547Z,83.60
2023-04-15T15:05:24.747Z,85.17
2023-04-15T15:08:11.082Z,85.65
2023-04-15T15:10:56.424Z,85.49
2023-04-15T15:13:41.903Z,85.54
2023-04-15T15:16:28.269Z,86.80
2023-04-15T15:19:13.957Z,87.69
2023-04-15T15:21:59.329Z,87.95
2023-04-15T15:24:44.435Z,87.15
2023-04-15T15:27:29.618Z,86.51
2023-04-15T15:30:15.096Z,86.31
2023-04-15T15:33:00.524Z,86.46
2023-04-15T15:35:46.953Z,86.22
2023-04-15T15:38:31.901Z,86.15
2023-04-15T15:41:17.328Z,86.58
2023-04-15T15:44:02.842Z,87.75
2023-04-15T15:46:48.157Z,87.13
2023-04-15T15:49:33.579Z,87.39
2023-04-15T15:52:19.476Z,87.40
2023-04-15T15:55:04.849Z,87.14
2023-04-15T15:57:49.897Z,86.57
2023-04-15T16:00:35.769Z,87.04
2023-04-15T16:03:21.260Z,87.07
2023-04-15T16:06:06.481Z,86.59
2023-04-15T16:08:51.800Z,86.37
2023-04-15T16:11:37.132Z,86.24
2023-04-15T16:14:22.394Z,85.37
2023-04-15T16:17:07.651Z,85.38
2023-04-15T16:19:58.181Z,85.52
2023-04-15T16:22:46.159Z,85.96
2023-04-15T16:25:31.515Z,86.38
2023-04-15T16:28:26.465Z,86.07
2023-04-15T16:31:12.472Z,85.86
2023-04-15T16:33:57.807Z,86.54
2023-04-15T16:36:43.026Z,86.02
2023-04-15T16:39:28.224Z,85.72
2023-04-15T16:42:13.593Z,85.16
2023-04-15T16:44:58.787Z,85.54
2023-04-15T16:47:44.123Z,85.59
2023-04-15T16:50:29.544Z,85.19
2023-04-15T16:53:15.870Z,85.58
2023-04-15T16:56:01.062Z,85.82
2023-04-15T16:58:46.222Z,85.44
2023-04-15T17:01:31.700Z,85.58
2023-04-15T17:04:17.366Z,85.31
2023-04-15T17:07:02.722Z,85.59
2023-04-15T17:09:48.190Z,86.01
2023-04-15T17:12:33.459Z,85.47
2023-04-15T17:15:19.903Z,85.30
2023-04-15T17:18:05.382Z,85.29
2023-04-15T17:20:50.662Z,85.05
2023-04-15T17:23:35.969Z,84.83
2023-04-15T17:26:22.138Z,84.79
2023-04-15T17:29:07.330Z,85.03
2023-04-15T17:31:52.507Z,85.05
2023-04-15T17:34:50.082Z,84.68
2023-04-15T17:37:36.344Z,84.76
2023-04-15T17:40:21.635Z,84.55
2023-04-15T17:43:07.091Z,84.35
2023-04-15T17:45:52.330Z,85.00
2023-04-15T17:48:37.617Z,85.35
2023-04-15T17:51:22.845Z,85.42
2023-04-15T17:54:08.170Z,84.67
2023-04-15T17:56:54.011Z,84.76
2023-04-15T17:59:43.918Z,84.49
2023-04-15T18:02:29.347Z,84.28
2023-04-15T18:05:15.572Z,84.24
2023-04-15T18:08:00.998Z,84.58
2023-04-15T18:10:46.368Z,85.11
2023-04-15T18:13:31.641Z,85.15
2023-04-15T18:16:17.032Z,85.74
2023-04-15T18:19:02.337Z,85.44
2023-04-15T18:21:48.487Z,85.47
2023-04-15T18:24:37.396Z,85.14
2023-04-15T18:27:22.800Z,85.35
2023-04-15T18:30:11.799Z,85.31
2023-04-15T18:32:57.003Z,85.56
2023-04-15T18:35:43.078Z,85.69
2023-04-15T18:38:28.519Z,86.50
2023-04-15T18:41:14.131Z,86.03
2023-04-15T18:43:59.491Z,86.30
2023-04-15T18:46:44.900Z,85.94
2023-04-15T18:49:33.208Z,86.32
2023-04-15T18:52:18.581Z,86.74
2023-04-15T18:55:04.198Z,86.48
2023-04-15T18:57:49.322Z,86.31
2023-04-15T19:00:36.440Z,86.61
2023-04-15T19:03:21.600Z,86.70
2023-04-15T19:06:06.825Z,86.93
2023-04-15T19:08:52.227Z,86.86
2023-04-15T19:11:37.711Z,86.81
2023-04-15T19:14:22.648Z,86.67
2023-04-15T19:17:07.921Z,86.86
2023-04-15T19:19:53.146Z,86.74
2023-04-15T19:22:38.537Z,87.19
2023-04-15T19:25:23.790Z,86.79
2023-04-15T19:28:09.241Z,86.77
2023-04-15T19:30:54.991Z,86.94
2023-04-15T19:33:40.379Z,87.12
2023-04-15T19:36:26.322Z,86.45
2023-04-15T19:39:11.690Z,86.82
2023-04-15T19:41:58.927Z,86.77
2023-04-15T19:44:44.052Z,86.75
2023-04-15T19:47:29.304Z,86.89
2023-04-15T19:50:15.916Z,87.33
2023-04-15T19:53:01.123Z,87.24
2023-04-15T19:55:47.211Z,87.33
2023-04-15T19:58:32.581Z,87.20
2023-04-15T20:01:17.532Z,86.81
2023-04-15T20:04:04.059Z,87.04
2023-04-15T20:06:50.006Z,87.35
2023-04-15T20:09:35.642Z,86.88
2023-04-15T20:12:49.460Z,86.67
2023-04-15T20:15:26.425Z,86.85
2023-04-15T20:18:11.558Z,86.71
2023-04-15T20:20:56.701Z,86.81
2023-04-15T20:23:42.588Z,87.35
2023-04-15T20:26:27.719Z,87.27
2023-04-15T20:29:13.849Z,86.66
2023-04-15T20:31:59.227Z,86.71
2023-04-15T20:34:44.863Z,86.87
2023-04-15T20:37:30.904Z,87.09
2023-04-15T20:40:16.335Z,88.02
2023-04-15T20:43:01.416Z,87.60
2023-04-15T20:45:46.611Z,87.65
2023-04-15T20:48:31.979Z,87.01
2023-04-15T20:51:17.217Z,86.71
2023-04-15T20:54:02.915Z,86.65
2023-04-15T20:56:48.137Z,86.81
2023-04-15T20:59:34.847Z,87.08
2023-04-15T21:02:20.552Z,87.51
2023-04-15T21:05:06.024Z,87.41
2023-04-15T21:07:51.012Z,86.80
2023-04-15T21:10:36.374Z,87.15
2023-04-15T21:13:21.796Z,87.45
2023-04-15T21:16:07.134Z,87.41
2023-04-15T21:18:52.624Z,87.39
2023-04-15T21:21:37.742Z,87.62
2023-04-15T21:24:23.050Z,87.64
2023-04-15T21:27:09.538Z,87.41
2023-04-15T21:29:54.697Z,88.09
2023-04-15T21:32:40.084Z,87.87
2023-04-15T21:35:25.515Z,88.08
2023-04-15T21:38:10.816Z,88.72
2023-04-15T21:40:56.676Z,89.07
2023-04-15T21:43:42.204Z,88.93
2023-04-15T21:46:33.052Z,88.54
2023-04-15T21:49:20.860Z,88.73
2023-04-15T21:52:06.031Z,88.29
2023-04-15T21:54:51.267Z,88.32
2023-04-15T21:57:36.758Z,87.95
2023-04-15T22:00:23.686Z,88.02
2023-04-15T22:03:09.436Z,88.14
2023-04-15T22:05:55.016Z,87.99
2023-04-15T22:08:54.935Z,88.22
2023-04-15T22:11:42.659Z,87.88
2023-04-15T22:14:28.429Z,87.94
2023-04-15T22:17:13.700Z,87.79
2023-04-15T22:19:58.938Z,87.60
2023-04-15T22:22:44.862Z,87.91
2023-04-15T22:25:30.870Z,87.78
2023-04-15T22:28:16.060Z,87.51
2023-04-15T22:31:02.510Z,88.28
2023-04-15T22:33:48.000Z,88.38
2023-04-15T22:36:33.329Z,88.57
2023-04-15T22:39:19.419Z,88.48
2023-04-15T22:42:04.713Z,88.85
2023-04-15T22:44:50.726Z,88.76
2023-04-15T22:47:36.122Z,88.73
2023-04-15T22:50:21.705Z,88.55
2023-04-15T22:53:06.851Z,89.07
2023-04-15T22:55:52.221Z,89.45
2023-04-15T22:58:37.638Z,89.47
2023-04-15T23:01:23.119Z,89.36
2023-04-15T23:04:09.770Z,88.21
2023-04-15T23:07:08.456Z,88.42
2023-04-15T23:09:53.898Z,88.40
2023-04-15T23:12:39.132Z,88.71
2023-04-15T23:15:25.392Z,88.82
2023-04-15T23:18:10.345Z,88.93
2023-04-15T23:20:56.509Z,88.57
2023-04-15T23:23:41.483Z,89.09
2023-04-15T23:26:27.418Z,88.94
2023-04-15T23:29:12.720Z,89.14
2023-04-15T23:31:58.034Z,89.75
2023-04-15T23:34:43.251Z,89.21
2023-04-15T23:37:31.503Z,90.36
2023-04-15T23:40:16.702Z,90.77
2023-04-15T23:43:02.031Z,91.97
2023-04-15T23:45:47.236Z,91.47
2023-04-15T23:48:32.696Z,91.76
2023-04-15T23:51:18.062Z,91.11
2023-04-15T23:54:03.494Z,91.23
2023-04-15T23:56:49.028Z,90.84
2023-04-15T23:59:34.109Z,90.68
